sensor_id;sensor_type;location;lat;lon;timestamp;pressure;altitude;pressure_sealevel;temperature
58307;BMP280;44116;50.884;4.768;2023-09-18T00:01:16;99950.0;;;19.0
58307;BMP280;44116;50.884;4.768;2023-09-18T00:03:16;99940.0;;;19.1
58307;BMP280;44116;50.884;4.768;2023-09-18T00:05:16;99930.0;;;19.1
58307;BMP280;44116;50.884;4.768;2023-09-18T00:07:16;99920.0;;;19.2
58307;BMP280;44116;50.884;4.768;2023-09-18T00:09:16;99920.0;;;19.4
58307;BMP280;44116;50.884;4.768;2023-09-18T00:11:16;99910.0;;;19.3
58307;BMP280;44116;50.884;4.768;2023-09-18T00:13:16;99910.0;;;19.4
58307;BMP280;44116;50.884;4.768;2023-09-18T00:15:16;99920.0;;;19.5
58307;BMP280;44116;50.884;4.768;2023-09-18T00:17:15;99920.0;;;19.4
58307;BMP280;44116;50.884;4.768;2023-09-18T00:19:15;99910.0;;;19.5
58307;BMP280;44116;50.884;4.768;2023-09-18T00:21:15;99920.0;;;19.5
58307;BMP280;44116;50.884;4.768;2023-09-18T00:23:15;99930.0;;;19.6
58307;BMP280;44116;50.884;4.768;2023-09-18T00:25:15;99930.0;;;20.5
58307;BMP280;44116;50.884;4.768;2023-09-18T00:27:15;99950.0;;;20.5
58307;BMP280;44116;50.884;4.768;2023-09-18T00:29:15;99960.0;;;20.6
58307;BMP280;44116;50.884;4.768;2023-09-18T00:31:15;99970.0;;;20.6
58307;BMP280;44116;50.884;4.768;2023-09-18T00:33:15;99970.0;;;20.7
58307;BMP280;44116;50.884;4.768;2023-09-18T00:35:15;99980.0;;;20.9
58307;BMP280;44116;50.884;4.768;2023-09-18T00:37:15;99980.0;;;21.0
58307;BMP280;44116;50.884;4.768;2023-09-18T00:39:15;99980.0;;;21.4
58307;BMP280;44116;50.884;4.768;2023-09-18T00:41:15;99980.0;;;21.3
58307;BMP280;44116;50.884;4.768;2023-09-18T00:43:15;99980.0;;;21.1
58307;BMP280;44116;50.884;4.768;2023-09-18T00:45:15;99960.0;;;19.8
58307;BMP280;44116;50.884;4.768;2023-09-18T00:47:15;99940.0;;;19.5
58307;BMP280;44116;50.884;4.768;2023-09-18T00:49:15;99930.0;;;19.4
58307;BMP280;44116;50.884;4.768;2023-09-18T00:51:15;99910.0;;;19.4
58307;BMP280;44116;50.884;4.768;2023-09-18T00:53:16;99900.0;;;19.4
58307;BMP280;44116;50.884;4.768;2023-09-18T00:55:15;99890.0;;;19.2
58307;BMP280;44116;50.884;4.768;2023-09-18T00:59:15;99900.0;;;19.3
58307;BMP280;44116;50.884;4.768;2023-09-18T01:01:15;99900.0;;;19.4
58307;BMP280;44116;50.884;4.768;2023-09-18T01:03:15;99910.0;;;19.3
58307;BMP280;44116;50.884;4.768;2023-09-18T01:05:15;99920.0;;;19.1
58307;BMP280;44116;50.884;4.768;2023-09-18T01:07:15;99930.0;;;19.1
58307;BMP280;44116;50.884;4.768;2023-09-18T01:09:15;99950.0;;;18.9
58307;BMP280;44116;50.884;4.768;2023-09-18T01:11:18;99950.0;;;19.0
58307;BMP280;44116;50.884;4.768;2023-09-18T01:13:15;99940.0;;;19.0
58307;BMP280;44116;50.884;4.768;2023-09-18T01:15:16;99930.0;;;19.1
58307;BMP280;44116;50.884;4.768;2023-09-18T01:17:14;99940.0;;;19.1
58307;BMP280;44116;50.884;4.768;2023-09-18T01:19:14;99940.0;;;19.1
58307;BMP280;44116;50.884;4.768;2023-09-18T01:21:14;99930.0;;;19.2
58307;BMP280;44116;50.884;4.768;2023-09-18T01:23:14;99920.0;;;19.1
58307;BMP280;44116;50.884;4.768;2023-09-18T01:25:14;99890.0;;;19.1
58307;BMP280;44116;50.884;4.768;2023-09-18T01:27:14;99890.0;;;19.1
58307;BMP280;44116;50.884;4.768;2023-09-18T01:29:14;99900.0;;;19.2
58307;BMP280;44116;50.884;4.768;2023-09-18T01:31:14;99910.0;;;19.1
58307;BMP280;44116;50.884;4.768;2023-09-18T01:33:14;99900.0;;;19.0
58307;BMP280;44116;50.884;4.768;2023-09-18T01:35:14;99890.0;;;19.0
58307;BMP280;44116;50.884;4.768;2023-09-18T01:37:15;99880.0;;;19.0
58307;BMP280;44116;50.884;4.768;2023-09-18T01:39:14;99880.0;;;19.8
58307;BMP280;44116;50.884;4.768;2023-09-18T01:41:14;99900.0;;;20.3
58307;BMP280;44116;50.884;4.768;2023-09-18T01:43:14;99920.0;;;20.2
58307;BMP280;44116;50.884;4.768;2023-09-18T01:45:14;99920.0;;;20.2
58307;BMP280;44116;50.884;4.768;2023-09-18T01:47:15;99920.0;;;19.2
58307;BMP280;44116;50.884;4.768;2023-09-18T01:49:14;99910.0;;;19.1
58307;BMP280;44116;50.884;4.768;2023-09-18T01:51:14;99910.0;;;19.0
58307;BMP280;44116;50.884;4.768;2023-09-18T01:53:13;99900.0;;;19.0
58307;BMP280;44116;50.884;4.768;2023-09-18T01:55:13;99870.0;;;19.0
58307;BMP280;44116;50.884;4.768;2023-09-18T01:57:13;99870.0;;;19.7
58307;BMP280;44116;50.884;4.768;2023-09-18T01:59:13;99870.0;;;19.0
58307;BMP280;44116;50.884;4.768;2023-09-18T02:01:13;99850.0;;;18.9
58307;BMP280;44116;50.884;4.768;2023-09-18T02:03:13;99850.0;;;18.9
58307;BMP280;44116;50.884;4.768;2023-09-18T02:05:13;99830.0;;;18.9
58307;BMP280;44116;50.884;4.768;2023-09-18T02:07:13;99800.0;;;18.9
58307;BMP280;44116;50.884;4.768;2023-09-18T02:09:13;99790.0;;;18.9
58307;BMP280;44116;50.884;4.768;2023-09-18T02:11:13;99800.0;;;18.9
58307;BMP280;44116;50.884;4.768;2023-09-18T02:15:13;99780.0;;;18.9
58307;BMP280;44116;50.884;4.768;2023-09-18T02:17:13;99760.0;;;19.1
58307;BMP280;44116;50.884;4.768;2023-09-18T02:19:13;99760.0;;;18.9
58307;BMP280;44116;50.884;4.768;2023-09-18T02:21:18;99760.0;;;18.9
58307;BMP280;44116;50.884;4.768;2023-09-18T02:23:13;99770.0;;;19.1
58307;BMP280;44116;50.884;4.768;2023-09-18T02:25:13;99780.0;;;19.3
58307;BMP280;44116;50.884;4.768;2023-09-18T02:27:13;99770.0;;;18.9
58307;BMP280;44116;50.884;4.768;2023-09-18T02:29:12;99770.0;;;20.2
58307;BMP280;44116;50.884;4.768;2023-09-18T02:31:12;99780.0;;;20.0
58307;BMP280;44116;50.884;4.768;2023-09-18T02:33:12;99790.0;;;20.1
58307;BMP280;44116;50.884;4.768;2023-09-18T02:39:12;99820.0;;;19.2
58307;BMP280;44116;50.884;4.768;2023-09-18T02:41:12;99830.0;;;19.2
58307;BMP280;44116;50.884;4.768;2023-09-18T02:43:12;99810.0;;;19.1
58307;BMP280;44116;50.884;4.768;2023-09-18T02:47:12;99800.0;;;19.1
58307;BMP280;44116;50.884;4.768;2023-09-18T02:53:16;99800.0;;;19.1
58307;BMP280;44116;50.884;4.768;2023-09-18T02:57:12;99780.0;;;19.2
58307;BMP280;44116;50.884;4.768;2023-09-18T02:59:12;99780.0;;;19.1
58307;BMP280;44116;50.884;4.768;2023-09-18T03:03:12;99760.0;;;19.6
58307;BMP280;44116;50.884;4.768;2023-09-18T03:05:12;99760.0;;;19.2
58307;BMP280;44116;50.884;4.768;2023-09-18T03:07:12;99780.0;;;19.4
58307;BMP280;44116;50.884;4.768;2023-09-18T03:13:14;99800.0;;;19.5
58307;BMP280;44116;50.884;4.768;2023-09-18T03:15:11;99810.0;;;19.4
58307;BMP280;44116;50.884;4.768;2023-09-18T03:17:11;99820.0;;;19.8
58307;BMP280;44116;50.884;4.768;2023-09-18T03:19:11;99810.0;;;19.5
58307;BMP280;44116;50.884;4.768;2023-09-18T03:27:11;99760.0;;;19.2
58307;BMP280;44116;50.884;4.768;2023-09-18T03:29:11;99750.0;;;19.3
58307;BMP280;44116;50.884;4.768;2023-09-18T03:31:11;99760.0;;;19.3
58307;BMP280;44116;50.884;4.768;2023-09-18T03:35:11;99740.0;;;19.6
58307;BMP280;44116;50.884;4.768;2023-09-18T03:37:11;99740.0;;;19.3
58307;BMP280;44116;50.884;4.768;2023-09-18T03:39:11;99750.0;;;18.8
58307;BMP280;44116;50.884;4.768;2023-09-18T03:41:11;99750.0;;;18.8
58307;BMP280;44116;50.884;4.768;2023-09-18T03:43:11;99750.0;;;18.6
58307;BMP280;44116;50.884;4.768;2023-09-18T03:45:11;99760.0;;;18.6
58307;BMP280;44116;50.884;4.768;2023-09-18T03:47:11;99750.0;;;18.6
58307;BMP280;44116;50.884;4.768;2023-09-18T03:51:10;99740.0;;;18.4
58307;BMP280;44116;50.884;4.768;2023-09-18T03:53:10;99730.0;;;18.4
58307;BMP280;44116;50.884;4.768;2023-09-18T03:55:10;99720.0;;;18.4
58307;BMP280;44116;50.884;4.768;2023-09-18T03:57:10;99710.0;;;18.4
58307;BMP280;44116;50.884;4.768;2023-09-18T03:59:10;99700.0;;;18.9
58307;BMP280;44116;50.884;4.768;2023-09-18T04:01:10;99700.0;;;18.6
58307;BMP280;44116;50.884;4.768;2023-09-18T04:03:10;99700.0;;;18.4
58307;BMP280;44116;50.884;4.768;2023-09-18T04:05:10;99690.0;;;18.7
58307;BMP280;44116;50.884;4.768;2023-09-18T04:07:10;99700.0;;;19.1
58307;BMP280;44116;50.884;4.768;2023-09-18T04:09:10;99700.0;;;18.7
58307;BMP280;44116;50.884;4.768;2023-09-18T04:11:10;99710.0;;;18.7
58307;BMP280;44116;50.884;4.768;2023-09-18T04:13:10;99710.0;;;18.6
58307;BMP280;44116;50.884;4.768;2023-09-18T04:15:10;99720.0;;;18.6
58307;BMP280;44116;50.884;4.768;2023-09-18T04:17:10;99720.0;;;19.1
58307;BMP280;44116;50.884;4.768;2023-09-18T04:19:10;99720.0;;;18.7
58307;BMP280;44116;50.884;4.768;2023-09-18T04:21:10;99710.0;;;18.4
58307;BMP280;44116;50.884;4.768;2023-09-18T04:23:17;99720.0;;;18.6
58307;BMP280;44116;50.884;4.768;2023-09-18T04:25:10;99720.0;;;18.3
58307;BMP280;44116;50.884;4.768;2023-09-18T04:27:09;99720.0;;;18.2
58307;BMP280;44116;50.884;4.768;2023-09-18T04:29:09;99710.0;;;18.2
58307;BMP280;44116;50.884;4.768;2023-09-18T04:31:09;99710.0;;;19.0
58307;BMP280;44116;50.884;4.768;2023-09-18T04:33:09;99730.0;;;18.2
58307;BMP280;44116;50.884;4.768;2023-09-18T04:37:09;99720.0;;;18.0
58307;BMP280;44116;50.884;4.768;2023-09-18T04:41:09;99730.0;;;18.0
58307;BMP280;44116;50.884;4.768;2023-09-18T04:45:09;99730.0;;;18.0
58307;BMP280;44116;50.884;4.768;2023-09-18T04:47:09;99720.0;;;17.9
58307;BMP280;44116;50.884;4.768;2023-09-18T04:49:09;99720.0;;;17.9
58307;BMP280;44116;50.884;4.768;2023-09-18T04:51:08;99710.0;;;17.9
58307;BMP280;44116;50.884;4.768;2023-09-18T04:53:08;99700.0;;;17.8
58307;BMP280;44116;50.884;4.768;2023-09-18T04:55:09;99700.0;;;17.8
58307;BMP280;44116;50.884;4.768;2023-09-18T04:57:08;99710.0;;;17.8
58307;BMP280;44116;50.884;4.768;2023-09-18T04:59:08;99710.0;;;17.8
58307;BMP280;44116;50.884;4.768;2023-09-18T05:01:08;99710.0;;;17.7
58307;BMP280;44116;50.884;4.768;2023-09-18T05:03:08;99720.0;;;17.6
58307;BMP280;44116;50.884;4.768;2023-09-18T05:05:08;99720.0;;;17.7
58307;BMP280;44116;50.884;4.768;2023-09-18T05:07:08;99710.0;;;17.6
58307;BMP280;44116;50.884;4.768;2023-09-18T05:09:08;99720.0;;;17.7
58307;BMP280;44116;50.884;4.768;2023-09-18T05:11:08;99720.0;;;17.7
58307;BMP280;44116;50.884;4.768;2023-09-18T05:13:08;99720.0;;;17.6
58307;BMP280;44116;50.884;4.768;2023-09-18T05:15:08;99730.0;;;17.6
58307;BMP280;44116;50.884;4.768;2023-09-18T05:17:09;99730.0;;;17.6
58307;BMP280;44116;50.884;4.768;2023-09-18T05:19:07;99740.0;;;17.6
58307;BMP280;44116;50.884;4.768;2023-09-18T05:21:08;99740.0;;;17.6
58307;BMP280;44116;50.884;4.768;2023-09-18T05:23:07;99740.0;;;17.6
58307;BMP280;44116;50.884;4.768;2023-09-18T05:25:07;99740.0;;;17.6
58307;BMP280;44116;50.884;4.768;2023-09-18T05:27:07;99740.0;;;17.7
58307;BMP280;44116;50.884;4.768;2023-09-18T05:31:07;99740.0;;;17.6
58307;BMP280;44116;50.884;4.768;2023-09-18T05:35:07;99740.0;;;17.6
58307;BMP280;44116;50.884;4.768;2023-09-18T05:37:06;99740.0;;;17.6
58307;BMP280;44116;50.884;4.768;2023-09-18T05:39:06;99750.0;;;17.6
58307;BMP280;44116;50.884;4.768;2023-09-18T05:41:06;99760.0;;;17.8
58307;BMP280;44116;50.884;4.768;2023-09-18T05:43:06;99760.0;;;17.6
58307;BMP280;44116;50.884;4.768;2023-09-18T05:45:06;99760.0;;;17.6
58307;BMP280;44116;50.884;4.768;2023-09-18T05:47:06;99760.0;;;17.5
58307;BMP280;44116;50.884;4.768;2023-09-18T05:49:06;99770.0;;;17.6
58307;BMP280;44116;50.884;4.768;2023-09-18T05:51:06;99770.0;;;17.5
58307;BMP280;44116;50.884;4.768;2023-09-18T05:53:06;99770.0;;;17.4
58307;BMP280;44116;50.884;4.768;2023-09-18T05:55:06;99770.0;;;17.6
58307;BMP280;44116;50.884;4.768;2023-09-18T05:57:05;99770.0;;;17.4
58307;BMP280;44116;50.884;4.768;2023-09-18T05:59:05;99770.0;;;17.4
58307;BMP280;44116;50.884;4.768;2023-09-18T06:01:06;99780.0;;;17.4
58307;BMP280;44116;50.884;4.768;2023-09-18T06:07:05;99800.0;;;17.5
58307;BMP280;44116;50.884;4.768;2023-09-18T06:09:05;99800.0;;;17.5
58307;BMP280;44116;50.884;4.768;2023-09-18T06:11:05;99800.0;;;17.4
58307;BMP280;44116;50.884;4.768;2023-09-18T06:13:05;99800.0;;;17.4
58307;BMP280;44116;50.884;4.768;2023-09-18T06:15:05;99790.0;;;17.4
58307;BMP280;44116;50.884;4.768;2023-09-18T06:19:05;99790.0;;;17.4
58307;BMP280;44116;50.884;4.768;2023-09-18T06:21:04;99800.0;;;17.5
58307;BMP280;44116;50.884;4.768;2023-09-18T06:23:04;99800.0;;;17.5
58307;BMP280;44116;50.884;4.768;2023-09-18T06:25:04;99800.0;;;17.5
58307;BMP280;44116;50.884;4.768;2023-09-18T06:27:04;99810.0;;;17.5
58307;BMP280;44116;50.884;4.768;2023-09-18T06:29:04;99810.0;;;17.6
58307;BMP280;44116;50.884;4.768;2023-09-18T06:31:04;99820.0;;;17.6
58307;BMP280;44116;50.884;4.768;2023-09-18T06:33:04;99820.0;;;17.5
58307;BMP280;44116;50.884;4.768;2023-09-18T06:37:04;99830.0;;;17.5
58307;BMP280;44116;50.884;4.768;2023-09-18T06:39:04;99830.0;;;17.6
58307;BMP280;44116;50.884;4.768;2023-09-18T06:41:04;99830.0;;;18.1
58307;BMP280;44116;50.884;4.768;2023-09-18T06:43:04;99820.0;;;17.6
58307;BMP280;44116;50.884;4.768;2023-09-18T06:47:03;99840.0;;;17.7
58307;BMP280;44116;50.884;4.768;2023-09-18T06:53:03;99840.0;;;17.6
58307;BMP280;44116;50.884;4.768;2023-09-18T06:59:03;99860.0;;;18.0
58307;BMP280;44116;50.884;4.768;2023-09-18T07:05:03;99880.0;;;18.2
58307;BMP280;44116;50.884;4.768;2023-09-18T07:07:02;99890.0;;;17.8
58307;BMP280;44116;50.884;4.768;2023-09-18T07:09:02;99890.0;;;17.7
58307;BMP280;44116;50.884;4.768;2023-09-18T07:11:02;99890.0;;;17.8
58307;BMP280;44116;50.884;4.768;2023-09-18T07:15:02;99880.0;;;17.8
58307;BMP280;44116;50.884;4.768;2023-09-18T07:17:02;99890.0;;;17.8
58307;BMP280;44116;50.884;4.768;2023-09-18T07:19:02;99900.0;;;18.2
58307;BMP280;44116;50.884;4.768;2023-09-18T07:21:02;99900.0;;;18.2
58307;BMP280;44116;50.884;4.768;2023-09-18T07:23:02;99900.0;;;18.0
58307;BMP280;44116;50.884;4.768;2023-09-18T07:25:02;99900.0;;;18.1
58307;BMP280;44116;50.884;4.768;2023-09-18T07:27:01;99910.0;;;18.0
58307;BMP280;44116;50.884;4.768;2023-09-18T07:29:01;99910.0;;;18.0
58307;BMP280;44116;50.884;4.768;2023-09-18T07:31:05;99910.0;;;17.8
58307;BMP280;44116;50.884;4.768;2023-09-18T07:33:01;99910.0;;;17.8
58307;BMP280;44116;50.884;4.768;2023-09-18T07:35:01;99900.0;;;17.9
58307;BMP280;44116;50.884;4.768;2023-09-18T07:37:01;99900.0;;;17.8
58307;BMP280;44116;50.884;4.768;2023-09-18T07:39:01;99890.0;;;17.9
58307;BMP280;44116;50.884;4.768;2023-09-18T07:41:01;99890.0;;;18.0
58307;BMP280;44116;50.884;4.768;2023-09-18T07:43:01;99890.0;;;18.0
58307;BMP280;44116;50.884;4.768;2023-09-18T07:45:01;99880.0;;;18.1
58307;BMP280;44116;50.884;4.768;2023-09-18T07:47:01;99890.0;;;18.6
58307;BMP280;44116;50.884;4.768;2023-09-18T07:49:01;99890.0;;;18.8
58307;BMP280;44116;50.884;4.768;2023-09-18T07:51:00;99880.0;;;18.7
58307;BMP280;44116;50.884;4.768;2023-09-18T07:55:00;99890.0;;;18.5
58307;BMP280;44116;50.884;4.768;2023-09-18T07:57:00;99890.0;;;18.6
58307;BMP280;44116;50.884;4.768;2023-09-18T07:59:00;99900.0;;;18.7
58307;BMP280;44116;50.884;4.768;2023-09-18T08:01:00;99900.0;;;18.6
58307;BMP280;44116;50.884;4.768;2023-09-18T08:07:00;99910.0;;;18.9
58307;BMP280;44116;50.884;4.768;2023-09-18T08:09:00;99910.0;;;19.0
58307;BMP280;44116;50.884;4.768;2023-09-18T08:13:00;99920.0;;;19.0
58307;BMP280;44116;50.884;4.768;2023-09-18T08:17:00;99940.0;;;19.6
58307;BMP280;44116;50.884;4.768;2023-09-18T08:19:00;99980.0;;;19.4
58307;BMP280;44116;50.884;4.768;2023-09-18T08:21:00;99980.0;;;19.9
58307;BMP280;44116;50.884;4.768;2023-09-18T08:22:59;99990.0;;;19.4
58307;BMP280;44116;50.884;4.768;2023-09-18T08:24:59;99980.0;;;19.2
58307;BMP280;44116;50.884;4.768;2023-09-18T08:26:59;99980.0;;;19.2
58307;BMP280;44116;50.884;4.768;2023-09-18T08:30:59;99990.0;;;19.5
58307;BMP280;44116;50.884;4.768;2023-09-18T08:32:59;100000.0;;;19.6
58307;BMP280;44116;50.884;4.768;2023-09-18T08:34:59;99990.0;;;19.4
58307;BMP280;44116;50.884;4.768;2023-09-18T08:36:59;100000.0;;;19.5
58307;BMP280;44116;50.884;4.768;2023-09-18T08:38:59;100000.0;;;19.9
58307;BMP280;44116;50.884;4.768;2023-09-18T08:40:59;100010.0;;;19.9
58307;BMP280;44116;50.884;4.768;2023-09-18T08:42:59;100010.0;;;20.0
58307;BMP280;44116;50.884;4.768;2023-09-18T08:44:59;100020.0;;;20.1
58307;BMP280;44116;50.884;4.768;2023-09-18T08:46:59;100020.0;;;20.0
58307;BMP280;44116;50.884;4.768;2023-09-18T08:48:59;100030.0;;;20.0
58307;BMP280;44116;50.884;4.768;2023-09-18T08:50:59;100030.0;;;19.8
58307;BMP280;44116;50.884;4.768;2023-09-18T08:52:59;100040.0;;;20.1
58307;BMP280;44116;50.884;4.768;2023-09-18T08:58:59;100040.0;;;20.1
58307;BMP280;44116;50.884;4.768;2023-09-18T09:00:59;100040.0;;;20.0
58307;BMP280;44116;50.884;4.768;2023-09-18T09:02:59;100050.0;;;20.3
58307;BMP280;44116;50.884;4.768;2023-09-18T09:04:59;100050.0;;;20.3
58307;BMP280;44116;50.884;4.768;2023-09-18T09:06:59;100050.0;;;20.5
58307;BMP280;44116;50.884;4.768;2023-09-18T09:10:59;100060.0;;;20.2
58307;BMP280;44116;50.884;4.768;2023-09-18T09:12:59;100060.0;;;20.2
58307;BMP280;44116;50.884;4.768;2023-09-18T09:16:59;100050.0;;;20.1
58307;BMP280;44116;50.884;4.768;2023-09-18T09:18:58;100050.0;;;20.4
58307;BMP280;44116;50.884;4.768;2023-09-18T09:20:59;100050.0;;;20.4
58307;BMP280;44116;50.884;4.768;2023-09-18T09:23:00;100050.0;;;20.4
58307;BMP280;44116;50.884;4.768;2023-09-18T09:24:58;100050.0;;;20.4
58307;BMP280;44116;50.884;4.768;2023-09-18T09:26:59;100050.0;;;20.5
58307;BMP280;44116;50.884;4.768;2023-09-18T09:28:59;100050.0;;;20.4
58307;BMP280;44116;50.884;4.768;2023-09-18T09:31:00;100050.0;;;20.2
58307;BMP280;44116;50.884;4.768;2023-09-18T09:32:59;100050.0;;;20.3
58307;BMP280;44116;50.884;4.768;2023-09-18T09:34:58;100050.0;;;20.4
58307;BMP280;44116;50.884;4.768;2023-09-18T09:38:58;100050.0;;;20.8
58307;BMP280;44116;50.884;4.768;2023-09-18T09:40:59;100050.0;;;20.7
58307;BMP280;44116;50.884;4.768;2023-09-18T09:42:58;100050.0;;;20.4
58307;BMP280;44116;50.884;4.768;2023-09-18T09:45:01;100060.0;;;20.4
58307;BMP280;44116;50.884;4.768;2023-09-18T09:48:59;100060.0;;;20.4
58307;BMP280;44116;50.884;4.768;2023-09-18T09:52:59;100060.0;;;20.4
58307;BMP280;44116;50.884;4.768;2023-09-18T09:54:58;100070.0;;;20.5
58307;BMP280;44116;50.884;4.768;2023-09-18T09:59:00;100070.0;;;20.9
58307;BMP280;44116;50.884;4.768;2023-09-18T10:00:59;100080.0;;;20.7
58307;BMP280;44116;50.884;4.768;2023-09-18T10:02:59;100080.0;;;21.0
58307;BMP280;44116;50.884;4.768;2023-09-18T10:08:58;100080.0;;;20.6
58307;BMP280;44116;50.884;4.768;2023-09-18T10:11:00;100080.0;;;20.8
58307;BMP280;44116;50.884;4.768;2023-09-18T10:13:00;100090.0;;;20.7
58307;BMP280;44116;50.884;4.768;2023-09-18T10:14:58;100090.0;;;20.8
58307;BMP280;44116;50.884;4.768;2023-09-18T10:16:59;100080.0;;;21.0
58307;BMP280;44116;50.884;4.768;2023-09-18T10:19:01;100080.0;;;20.9
58307;BMP280;44116;50.884;4.768;2023-09-18T10:21:01;100080.0;;;20.9
58307;BMP280;44116;50.884;4.768;2023-09-18T10:22:58;100080.0;;;20.8
58307;BMP280;44116;50.884;4.768;2023-09-18T10:26:59;100080.0;;;21.0
58307;BMP280;44116;50.884;4.768;2023-09-18T10:28:58;100080.0;;;21.3
58307;BMP280;44116;50.884;4.768;2023-09-18T10:30:58;100080.0;;;21.0
58307;BMP280;44116;50.884;4.768;2023-09-18T10:32:58;100070.0;;;20.9
58307;BMP280;44116;50.884;4.768;2023-09-18T10:34:58;100080.0;;;20.8
58307;BMP280;44116;50.884;4.768;2023-09-18T10:36:59;100080.0;;;21.4
58307;BMP280;44116;50.884;4.768;2023-09-18T10:38:58;100090.0;;;21.5
58307;BMP280;44116;50.884;4.768;2023-09-18T10:40:58;100080.0;;;21.2
58307;BMP280;44116;50.884;4.768;2023-09-18T10:42:58;100090.0;;;21.5
58307;BMP280;44116;50.884;4.768;2023-09-18T10:44:59;100090.0;;;21.4
58307;BMP280;44116;50.884;4.768;2023-09-18T10:46:59;100090.0;;;21.2
58307;BMP280;44116;50.884;4.768;2023-09-18T10:48:59;100090.0;;;21.3
58307;BMP280;44116;50.884;4.768;2023-09-18T10:50:59;100080.0;;;20.8
58307;BMP280;44116;50.884;4.768;2023-09-18T10:54:59;100080.0;;;20.8
58307;BMP280;44116;50.884;4.768;2023-09-18T10:56:59;100080.0;;;21.1
58307;BMP280;44116;50.884;4.768;2023-09-18T10:58:59;100080.0;;;21.3
58307;BMP280;44116;50.884;4.768;2023-09-18T11:00:59;100070.0;;;21.4
58307;BMP280;44116;50.884;4.768;2023-09-18T11:04:59;100080.0;;;21.3
58307;BMP280;44116;50.884;4.768;2023-09-18T11:07:02;100080.0;;;20.9
58307;BMP280;44116;50.884;4.768;2023-09-18T11:08:59;100070.0;;;20.7
58307;BMP280;44116;50.884;4.768;2023-09-18T11:10:59;100080.0;;;20.8
58307;BMP280;44116;50.884;4.768;2023-09-18T11:14:59;100070.0;;;21.5
58307;BMP280;44116;50.884;4.768;2023-09-18T11:16:59;100070.0;;;21.5
58307;BMP280;44116;50.884;4.768;2023-09-18T11:19:05;100070.0;;;21.8
58307;BMP280;44116;50.884;4.768;2023-09-18T11:21:06;100060.0;;;22.1
58307;BMP280;44116;50.884;4.768;2023-09-18T11:23:09;100080.0;;;21.9
58307;BMP280;44116;50.884;4.768;2023-09-18T11:26:59;100080.0;;;22.2
58307;BMP280;44116;50.884;4.768;2023-09-18T11:28:59;100070.0;;;22.5
58307;BMP280;44116;50.884;4.768;2023-09-18T11:30:59;100080.0;;;22.8
58307;BMP280;44116;50.884;4.768;2023-09-18T11:32:59;100080.0;;;22.7
58307;BMP280;44116;50.884;4.768;2023-09-18T11:35:06;100080.0;;;22.9
58307;BMP280;44116;50.884;4.768;2023-09-18T11:39:00;100080.0;;;22.5
58307;BMP280;44116;50.884;4.768;2023-09-18T11:40:59;100080.0;;;22.7
58307;BMP280;44116;50.884;4.768;2023-09-18T11:44:59;100090.0;;;23.0
58307;BMP280;44116;50.884;4.768;2023-09-18T11:53:00;100100.0;;;23.6
58307;BMP280;44116;50.884;4.768;2023-09-18T11:57:02;100110.0;;;23.8
58307;BMP280;44116;50.884;4.768;2023-09-18T11:59:00;100110.0;;;24.2
58307;BMP280;44116;50.884;4.768;2023-09-18T12:01:00;100110.0;;;24.1
58307;BMP280;44116;50.884;4.768;2023-09-18T12:05:04;100100.0;;;24.2
58307;BMP280;44116;50.884;4.768;2023-09-18T12:07:00;100090.0;;;24.1
58307;BMP280;44116;50.884;4.768;2023-09-18T12:09:00;100090.0;;;24.6
58307;BMP280;44116;50.884;4.768;2023-09-18T12:11:00;100100.0;;;24.1
58307;BMP280;44116;50.884;4.768;2023-09-18T12:13:00;100080.0;;;23.3
58307;BMP280;44116;50.884;4.768;2023-09-18T12:15:00;100080.0;;;23.0
58307;BMP280;44116;50.884;4.768;2023-09-18T12:17:01;100080.0;;;23.1
58307;BMP280;44116;50.884;4.768;2023-09-18T12:21:01;100080.0;;;23.3
58307;BMP280;44116;50.884;4.768;2023-09-18T12:25:08;100070.0;;;23.2
58307;BMP280;44116;50.884;4.768;2023-09-18T12:27:01;100070.0;;;23.3
58307;BMP280;44116;50.884;4.768;2023-09-18T12:29:01;100060.0;;;22.9
58307;BMP280;44116;50.884;4.768;2023-09-18T12:31:01;100060.0;;;22.6
58307;BMP280;44116;50.884;4.768;2023-09-18T12:35:01;100050.0;;;23.7
58307;BMP280;44116;50.884;4.768;2023-09-18T12:41:02;100040.0;;;23.6
58307;BMP280;44116;50.884;4.768;2023-09-18T12:45:02;100030.0;;;23.8
58307;BMP280;44116;50.884;4.768;2023-09-18T12:47:02;100040.0;;;23.8
58307;BMP280;44116;50.884;4.768;2023-09-18T12:51:02;100020.0;;;24.0
58307;BMP280;44116;50.884;4.768;2023-09-18T12:53:06;100020.0;;;24.0
58307;BMP280;44116;50.884;4.768;2023-09-18T12:55:02;100030.0;;;23.6
58307;BMP280;44116;50.884;4.768;2023-09-18T12:59:02;100020.0;;;24.0
58307;BMP280;44116;50.884;4.768;2023-09-18T13:01:04;100030.0;;;23.9
58307;BMP280;44116;50.884;4.768;2023-09-18T13:03:03;100020.0;;;24.0
58307;BMP280;44116;50.884;4.768;2023-09-18T13:05:03;100020.0;;;24.0
58307;BMP280;44116;50.884;4.768;2023-09-18T13:07:04;100010.0;;;24.0
58307;BMP280;44116;50.884;4.768;2023-09-18T13:13:03;100000.0;;;24.1
58307;BMP280;44116;50.884;4.768;2023-09-18T13:19:03;100000.0;;;24.4
58307;BMP280;44116;50.884;4.768;2023-09-18T13:25:04;99990.0;;;24.4
58307;BMP280;44116;50.884;4.768;2023-09-18T13:27:04;99990.0;;;24.5
58307;BMP280;44116;50.884;4.768;2023-09-18T13:29:04;99980.0;;;24.3
58307;BMP280;44116;50.884;4.768;2023-09-18T13:33:04;99970.0;;;24.1
58307;BMP280;44116;50.884;4.768;2023-09-18T13:35:04;99980.0;;;24.2
58307;BMP280;44116;50.884;4.768;2023-09-18T13:39:04;99970.0;;;24.0
58307;BMP280;44116;50.884;4.768;2023-09-18T13:41:04;99970.0;;;24.4
58307;BMP280;44116;50.884;4.768;2023-09-18T13:43:05;99970.0;;;24.6
58307;BMP280;44116;50.884;4.768;2023-09-18T13:47:05;99980.0;;;25.0
58307;BMP280;44116;50.884;4.768;2023-09-18T13:49:05;99970.0;;;24.1
58307;BMP280;44116;50.884;4.768;2023-09-18T13:51:05;99980.0;;;24.2
58307;BMP280;44116;50.884;4.768;2023-09-18T13:53:05;99980.0;;;24.6
58307;BMP280;44116;50.884;4.768;2023-09-18T13:55:05;99970.0;;;24.8
58307;BMP280;44116;50.884;4.768;2023-09-18T13:57:05;99970.0;;;24.8
58307;BMP280;44116;50.884;4.768;2023-09-18T14:01:05;99980.0;;;24.4
58307;BMP280;44116;50.884;4.768;2023-09-18T14:03:05;99970.0;;;24.4
58307;BMP280;44116;50.884;4.768;2023-09-18T14:05:06;99970.0;;;24.6
58307;BMP280;44116;50.884;4.768;2023-09-18T14:09:06;99960.0;;;24.6
58307;BMP280;44116;50.884;4.768;2023-09-18T14:11:06;99980.0;;;24.6
58307;BMP280;44116;50.884;4.768;2023-09-18T14:15:07;99970.0;;;24.9
58307;BMP280;44116;50.884;4.768;2023-09-18T14:17:06;99960.0;;;24.7
58307;BMP280;44116;50.884;4.768;2023-09-18T14:19:06;99960.0;;;25.0
58307;BMP280;44116;50.884;4.768;2023-09-18T14:21:06;99960.0;;;24.9
58307;BMP280;44116;50.884;4.768;2023-09-18T14:23:07;99960.0;;;24.7
58307;BMP280;44116;50.884;4.768;2023-09-18T14:25:07;99960.0;;;24.7
58307;BMP280;44116;50.884;4.768;2023-09-18T14:27:07;99960.0;;;24.1
58307;BMP280;44116;50.884;4.768;2023-09-18T14:31:07;99950.0;;;24.0
58307;BMP280;44116;50.884;4.768;2023-09-18T14:33:07;99950.0;;;23.9